Time;durP1;ratioP1;P1;durP2;ratioP2;P2;SDS_P1;SDS_P2;PMS_P1;PMS_P2;Temp;Humidity;BMP_temperature;BMP_pressure;BME280_temperature;BME280_humidity;BME280_pressure;Samples;Min_cycle;Max_cycle;Signal;HPM_P1;HPM_P2
2023/07/27 00:00:17;;;;;;;3.80;2.72;;;;;;;11.75;100.00;100394.25;4951173;28;20585;-80
2023/07/27 00:02:44;;;;;;;4.03;2.83;;;;;;;11.71;100.00;100389.97;4974897;28;20042;-80
2023/07/27 00:05:13;;;;;;;3.67;2.22;;;;;;;11.67;100.00;100389.19;4961614;28;20546;-79
2023/07/27 00:07:40;;;;;;;3.55;2.72;;;;;;;11.73;100.00;100389.00;4944842;28;20479;-80
2023/07/27 00:10:07;;;;;;;2.92;2.28;;;;;;;11.76;100.00;100393.34;4947265;28;20040;-80
2023/07/27 00:12:34;;;;;;;2.90;2.10;;;;;;;11.77;100.00;100392.44;4965358;28;20125;-81
2023/07/27 00:15:01;;;;;;;3.53;2.40;;;;;;;11.77;100.00;100384.50;4946820;28;20043;-80
2023/07/27 00:17:28;;;;;;;4.00;2.40;;;;;;;11.80;100.00;100390.59;4959988;28;20038;-80
2023/07/27 00:19:55;;;;;;;3.25;2.58;;;;;;;11.82;100.00;100383.47;4936252;28;20058;-80
2023/07/27 00:22:22;;;;;;;3.15;2.10;;;;;;;11.84;100.00;100386.94;4950611;28;20050;-82
2023/07/27 00:24:48;;;;;;;2.90;2.10;;;;;;;11.86;100.00;100378.13;4944354;28;20042;-80
2023/07/27 00:27:16;;;;;;;2.38;2.00;;;;;;;11.71;100.00;100380.25;5018212;28;20042;-80
2023/07/27 00:29:42;;;;;;;2.63;1.90;;;;;;;11.65;100.00;100383.09;4943145;28;20046;-80
2023/07/27 00:32:09;;;;;;;2.50;2.00;;;;;;;11.63;100.00;100378.75;4943265;28;20081;-81
2023/07/27 00:34:36;;;;;;;3.08;2.55;;;;;;;11.61;100.00;100386.75;4944679;28;20580;-80
2023/07/27 00:37:03;;;;;;;3.33;2.30;;;;;;;11.51;100.00;100386.13;4977250;28;20036;-80
2023/07/27 00:39:29;;;;;;;2.60;1.95;;;;;;;11.48;100.00;100385.34;4972189;28;20043;-80
2023/07/27 00:41:56;;;;;;;4.78;2.45;;;;;;;11.33;100.00;100389.28;4993641;28;20050;-81
2023/07/27 00:44:23;;;;;;;3.30;1.92;;;;;;;11.42;100.00;100386.38;4952645;28;20065;-80
2023/07/27 00:46:51;;;;;;;2.38;1.92;;;;;;;11.32;100.00;100378.75;4966007;28;20099;-81
2023/07/27 00:49:19;;;;;;;2.85;2.30;;;;;;;11.29;100.00;100379.72;4962279;28;20041;-81
2023/07/27 00:51:46;;;;;;;2.65;1.83;;;;;;;11.24;100.00;100379.84;4976681;28;22039;-81
2023/07/27 00:54:13;;;;;;;2.67;2.28;;;;;;;11.23;100.00;100374.59;4995925;28;20039;-80
2023/07/27 00:56:40;;;;;;;2.58;1.90;;;;;;;11.26;100.00;100372.72;4931147;28;20108;-80
2023/07/27 00:59:07;;;;;;;2.90;2.03;;;;;;;11.19;100.00;100373.81;4973310;28;20043;-80
2023/07/27 01:01:34;;;;;;;2.15;1.88;;;;;;;11.15;100.00;100376.56;4946874;28;20043;-80
2023/07/27 01:04:01;;;;;;;1.95;1.70;;;;;;;11.12;100.00;100376.66;4938511;28;20047;-81
2023/07/27 01:06:29;;;;;;;3.05;2.10;;;;;;;11.22;100.00;100376.38;5054397;28;20504;-80
2023/07/27 01:08:56;;;;;;;2.65;2.10;;;;;;;11.19;100.00;100373.81;4969966;28;20896;-81
2023/07/27 01:11:23;;;;;;;3.17;2.00;;;;;;;11.06;100.00;100367.13;5000734;28;20042;-80
2023/07/27 01:14:08;;;;;;;2.67;1.95;;;;;;;10.96;100.00;100369.16;4968698;28;20111;-80
2023/07/27 01:16:52;;;;;;;3.30;2.20;;;;;;;10.88;100.00;100375.53;4964395;28;20108;-80
2023/07/27 01:19:39;;;;;;;2.75;1.98;;;;;;;10.84;100.00;100379.16;4980883;28;20486;-80
2023/07/27 01:22:26;;;;;;;2.50;2.30;;;;;;;10.72;100.00;100377.72;5066686;28;20053;-81
2023/07/27 01:25:05;;;;;;;1.98;1.77;;;;;;;10.67;100.00;100383.09;4969907;28;20050;-81
2023/07/27 01:28:06;;;;;;;2.25;2.00;;;;;;;10.58;100.00;100377.19;4987742;28;20054;-81
2023/07/27 01:30:57;;;;;;;2.70;1.90;;;;;;;10.56;100.00;100384.28;4983392;28;20034;-80
2023/07/27 01:33:31;;;;;;;2.53;1.90;;;;;;;10.55;100.00;100385.19;4965269;28;20131;-78
2023/07/27 01:36:11;;;;;;;3.92;1.92;;;;;;;10.55;100.00;100377.28;4936373;28;20109;-79
2023/07/27 01:38:41;;;;;;;2.60;2.05;;;;;;;10.57;100.00;100370.16;5012680;28;20047;-80
2023/07/27 01:41:09;;;;;;;2.35;1.90;;;;;;;10.66;100.00;100367.28;4988080;28;20472;-81
2023/07/27 01:43:37;;;;;;;2.83;1.90;;;;;;;10.69;100.00;100376.03;4984452;28;20103;-80
2023/07/27 01:46:04;;;;;;;2.20;1.90;;;;;;;10.74;100.00;100362.69;5050173;28;20099;-78
2023/07/27 01:48:32;;;;;;;3.13;2.13;;;;;;;10.75;100.00;100360.91;4996124;28;20032;-78
2023/07/27 01:50:59;;;;;;;4.22;2.28;;;;;;;10.70;100.00;100359.25;5005244;28;20062;-77
2023/07/27 01:53:27;;;;;;;3.17;2.00;;;;;;;10.69;100.00;100370.75;5017718;28;20043;-77
2023/07/27 01:55:55;;;;;;;2.78;2.10;;;;;;;10.66;100.00;100370.81;4971827;28;20041;-78
2023/07/27 01:58:23;;;;;;;4.25;2.47;;;;;;;10.60;100.00;100363.06;5003233;28;20209;-77
2023/07/27 02:00:50;;;;;;;2.25;1.83;;;;;;;10.60;100.00;100370.13;4994880;28;20039;-78
2023/07/27 02:03:18;;;;;;;2.65;1.77;;;;;;;10.60;100.00;100373.63;4993086;28;20115;-78
2023/07/27 02:05:45;;;;;;;2.63;1.85;;;;;;;10.51;100.00;100376.50;4974998;28;20697;-78
2023/07/27 02:08:11;;;;;;;2.45;1.90;;;;;;;10.41;100.00;100367.03;5016388;28;20040;-78
2023/07/27 02:10:39;;;;;;;2.35;2.00;;;;;;;10.48;100.00;100375.69;4998352;28;20071;-78
2023/07/27 02:13:21;;;;;;;2.53;2.10;;;;;;;10.39;100.00;100364.44;4973604;28;20587;-78
2023/07/27 02:15:55;;;;;;;3.25;2.08;;;;;;;10.33;100.00;100367.22;4995499;28;20055;-79
2023/07/27 02:18:23;;;;;;;2.00;1.80;;;;;;;10.34;100.00;100362.81;4993485;28;20040;-78
2023/07/27 02:20:50;;;;;;;1.88;1.50;;;;;;;10.32;100.00;100352.28;4966961;28;20047;-79
2023/07/27 02:23:17;;;;;;;2.42;1.70;;;;;;;10.25;100.00;100353.34;4995788;28;20126;-79
2023/07/27 02:25:44;;;;;;;2.15;1.85;;;;;;;10.24;100.00;100346.31;4982947;28;20046;-79
2023/07/27 02:28:11;;;;;;;2.72;2.13;;;;;;;10.21;100.00;100349.00;4971369;28;20625;-79
2023/07/27 02:30:38;;;;;;;5.60;2.20;;;;;;;10.10;100.00;100340.50;4961764;28;20054;-80
2023/07/27 02:33:05;;;;;;;2.47;1.92;;;;;;;10.10;100.00;100337.84;5003569;28;20082;-79
2023/07/27 02:35:31;;;;;;;3.45;1.90;;;;;;;10.03;100.00;100338.91;4990880;28;20034;-79
2023/07/27 02:37:58;;;;;;;2.10;1.88;;;;;;;10.03;100.00;100344.16;4999638;28;20048;-79
2023/07/27 02:40:25;;;;;;;2.50;1.80;;;;;;;9.97;100.00;100336.38;4968893;28;20446;-79
2023/07/27 02:42:51;;;;;;;3.35;2.00;;;;;;;9.98;100.00;100341.63;4966811;28;20550;-80
2023/07/27 02:45:18;;;;;;;2.38;1.92;;;;;;;9.95;100.00;100338.19;4970771;28;20054;-80
2023/07/27 02:47:45;;;;;;;3.13;2.33;;;;;;;9.89;100.00;100333.91;4958745;28;20043;-79
2023/07/27 02:50:12;;;;;;;2.60;2.00;;;;;;;9.89;100.00;100339.19;4971047;28;20043;-80
2023/07/27 02:52:43;;;;;;;2.75;1.80;;;;;;;9.92;100.00;100346.16;4954757;28;20130;-79
2023/07/27 02:55:09;;;;;;;2.78;1.90;;;;;;;9.86;100.00;100334.88;5046452;28;20173;-78
2023/07/27 02:57:36;;;;;;;2.38;1.88;;;;;;;9.84;100.00;100338.47;4974483;28;20092;-79
2023/07/27 03:00:03;;;;;;;3.17;2.08;;;;;;;9.82;100.00;100334.97;4985994;28;20066;-78
2023/07/27 03:02:30;;;;;;;2.30;2.10;;;;;;;9.85;100.00;100345.47;4973857;28;20512;-78
2023/07/27 03:04:57;;;;;;;2.40;1.80;;;;;;;9.80;100.00;100340.28;4989069;28;20055;-79
2023/07/27 03:07:24;;;;;;;2.72;2.25;;;;;;;9.72;100.00;100336.06;5007325;28;21397;-79
2023/07/27 03:09:51;;;;;;;3.00;1.92;;;;;;;9.72;100.00;100336.94;4969438;28;20039;-78
2023/07/27 03:12:18;;;;;;;2.55;1.90;;;;;;;9.78;100.00;100346.50;4973923;28;20039;-79
2023/07/27 03:14:45;;;;;;;4.88;2.10;;;;;;;9.80;100.00;100347.31;4977454;28;20043;-79
2023/07/27 03:17:11;;;;;;;4.78;2.92;;;;;;;9.75;100.00;100343.91;4966608;28;20114;-78
2023/07/27 03:19:38;;;;;;;3.15;1.98;;;;;;;9.68;100.00;100352.88;4979766;28;20043;-78
2023/07/27 03:22:06;;;;;;;2.63;2.05;;;;;;;9.65;100.00;100347.66;4997403;28;20052;-77
2023/07/27 03:24:32;;;;;;;2.28;1.95;;;;;;;9.59;100.00;100352.19;5006751;28;20044;-78
2023/07/27 03:26:59;;;;;;;2.20;1.70;;;;;;;9.59;100.00;100360.09;4998769;28;20054;-78
2023/07/27 03:29:26;;;;;;;2.70;1.92;;;;;;;9.53;100.00;100348.81;4959882;28;20679;-78
2023/07/27 03:31:53;;;;;;;3.20;2.63;;;;;;;9.55;100.00;100352.25;4983595;28;20040;-79
2023/07/27 03:34:19;;;;;;;2.83;1.98;;;;;;;9.49;100.00;100355.88;5037921;28;20038;-78
2023/07/27 03:36:46;;;;;;;3.67;2.85;;;;;;;9.51;100.00;100359.38;4976038;28;20861;-79
2023/07/27 03:39:13;;;;;;;3.88;2.85;;;;;;;9.44;100.00;100356.91;5023961;28;20043;-79
2023/07/27 03:41:40;;;;;;;3.22;2.58;;;;;;;9.42;100.00;100351.66;4984723;28;20047;-79
2023/07/27 03:44:08;;;;;;;6.00;2.88;;;;;;;9.46;100.00;100355.97;4974856;28;20085;-79
2023/07/27 03:46:35;;;;;;;3.45;2.25;;;;;;;9.45;100.00;100361.28;4980807;28;20070;-78
2023/07/27 03:49:02;;;;;;;3.25;2.17;;;;;;;9.52;100.00;100353.22;4984183;28;20069;-78
2023/07/27 03:51:29;;;;;;;3.63;2.47;;;;;;;9.47;100.00;100362.09;4984737;28;20034;-78
2023/07/27 03:53:56;;;;;;;2.53;2.22;;;;;;;9.51;100.00;100354.09;4956778;28;20043;-78
2023/07/27 03:56:22;;;;;;;2.85;2.17;;;;;;;9.54;100.00;100345.25;4997530;28;20088;-78
2023/07/27 03:58:49;;;;;;;2.75;2.13;;;;;;;9.53;100.00;100347.03;4952273;28;20046;-78
2023/07/27 04:01:16;;;;;;;3.35;2.25;;;;;;;9.52;100.00;100341.78;4969980;28;20047;-78
2023/07/27 04:03:43;;;;;;;3.00;2.35;;;;;;;9.52;100.00;100345.28;4986881;28;20226;-78
2023/07/27 04:06:09;;;;;;;3.50;2.20;;;;;;;9.59;100.00;100341.63;4969700;28;20041;-78
2023/07/27 04:08:36;;;;;;;3.70;2.00;;;;;;;9.64;100.00;100344.16;4981643;28;20045;-78
2023/07/27 04:11:03;;;;;;;3.10;2.40;;;;;;;9.61;100.00;100346.00;4975910;28;20046;-79
2023/07/27 04:13:30;;;;;;;2.58;2.33;;;;;;;9.62;100.00;100339.81;4978024;28;20047;-78
2023/07/27 04:15:56;;;;;;;3.58;2.13;;;;;;;9.66;100.00;100339.69;4955643;28;20046;-78
2023/07/27 04:18:23;;;;;;;5.50;2.65;;;;;;;9.69;100.00;100334.38;5007194;28;20373;-78
2023/07/27 04:20:50;;;;;;;3.13;2.50;;;;;;;9.73;100.00;100335.16;4973835;28;20058;-79
2023/07/27 04:23:17;;;;;;;5.18;2.78;;;;;;;9.79;100.00;100342.97;4966822;28;20665;-78
2023/07/27 04:25:43;;;;;;;5.00;3.03;;;;;;;9.82;100.00;100340.25;4953322;28;20089;-81
2023/07/27 04:28:10;;;;;;;2.58;2.35;;;;;;;9.86;100.00;100337.50;4970878;28;20489;-80
2023/07/27 04:30:37;;;;;;;4.20;2.50;;;;;;;9.86;100.00;100334.00;4960484;28;20055;-81
2023/07/27 04:33:03;;;;;;;4.53;2.50;;;;;;;9.91;100.00;100329.47;4954353;28;20108;-80
2023/07/27 04:35:30;;;;;;;3.08;2.42;;;;;;;9.99;100.00;100331.94;4931741;28;20050;-80
2023/07/27 04:37:57;;;;;;;3.90;2.55;;;;;;;10.00;100.00;100331.03;5010466;28;20638;-80
2023/07/27 04:40:24;;;;;;;3.53;3.17;;;;;;;10.00;100.00;100321.34;4950455;28;20443;-80
2023/07/27 04:42:50;;;;;;;5.30;3.10;;;;;;;10.06;100.00;100328.25;4965956;28;20051;-80
2023/07/27 04:45:17;;;;;;;4.35;3.05;;;;;;;10.04;100.00;100324.78;4974327;28;20069;-80
2023/07/27 04:47:44;;;;;;;4.20;3.28;;;;;;;10.15;100.00;100320.97;4964413;28;20051;-80
2023/07/27 04:50:11;;;;;;;4.55;2.53;;;;;;;10.19;100.00;100319.16;4965027;28;20092;-80
2023/07/27 04:52:38;;;;;;;3.50;2.95;;;;;;;10.29;100.00;100314.53;5040574;28;20570;-81
2023/07/27 04:55:05;;;;;;;4.75;3.20;;;;;;;10.34;100.00;100305.59;4959125;28;20107;-79
2023/07/27 04:57:32;;;;;;;4.70;3.10;;;;;;;10.41;100.00;100307.16;4965774;28;20076;-78
2023/07/27 04:59:58;;;;;;;4.50;3.55;;;;;;;10.48;100.00;100299.94;4955320;28;20049;-78
2023/07/27 05:02:25;;;;;;;5.07;3.92;;;;;;;10.66;100.00;100304.75;4960775;28;20050;-79
2023/07/27 05:04:52;;;;;;;6.63;3.60;;;;;;;10.72;100.00;100298.44;4953274;28;20126;-78
2023/07/27 05:07:20;;;;;;;4.38;3.78;;;;;;;10.92;100.00;100300.53;4986267;28;20039;-79
2023/07/27 05:09:47;;;;;;;4.82;3.67;;;;;;;11.04;100.00;100300.22;4973716;28;20061;-78
2023/07/27 05:12:14;;;;;;;5.63;4.35;;;;;;;11.16;100.00;100304.28;5018520;28;20269;-79
2023/07/27 05:14:40;;;;;;;5.20;4.47;;;;;;;11.25;100.00;100296.94;4985867;28;20132;-79
2023/07/27 05:17:07;;;;;;;6.43;4.90;;;;;;;11.43;100.00;100299.94;4968364;28;20138;-78
2023/07/27 05:19:34;;;;;;;7.53;4.15;;;;;;;11.43;100.00;100306.09;4965208;28;20040;-77
2023/07/27 05:22:01;;;;;;;6.15;4.38;;;;;;;11.57;100.00;100309.22;4975631;28;20046;-77
2023/07/27 05:24:27;;;;;;;5.95;4.00;;;;;;;11.64;100.00;100309.03;4971364;28;20051;-78
2023/07/27 05:26:54;;;;;;;7.45;4.75;;;;;;;11.78;100.00;100306.84;4963397;28;20038;-79
2023/07/27 05:29:21;;;;;;;8.43;3.83;;;;;;;11.99;100.00;100302.69;4981884;28;20269;-78
2023/07/27 05:31:47;;;;;;;6.18;3.67;;;;;;;12.15;100.00;100303.06;4988428;28;20154;-78
2023/07/27 05:34:14;;;;;;;5.70;4.22;;;;;;;12.27;100.00;100297.34;5004173;28;20038;-78
2023/07/27 05:36:41;;;;;;;4.75;4.22;;;;;;;12.39;100.00;100296.94;4962826;28;20041;-78
2023/07/27 05:39:08;;;;;;;5.15;3.75;;;;;;;12.78;100.00;100291.19;4958365;28;20129;-78
2023/07/27 05:41:35;;;;;;;5.03;3.53;;;;;;;13.66;100.00;100293.22;4940541;28;20062;-78
2023/07/27 05:44:02;;;;;;;4.68;3.30;;;;;;;14.56;100.00;100294.03;4952654;28;20551;-78
2023/07/27 05:46:29;;;;;;;7.57;3.53;;;;;;;14.76;100.00;100293.16;4990352;28;20082;-78
2023/07/27 05:48:56;;;;;;;3.40;2.40;;;;;;;15.25;100.00;100293.63;5002757;28;20518;-78
2023/07/27 05:51:23;;;;;;;3.60;2.45;;;;;;;15.26;100.00;100298.03;4989357;28;20740;-78
2023/07/27 05:53:51;;;;;;;3.30;2.35;;;;;;;15.28;100.00;100296.16;4981975;28;20047;-79
2023/07/27 05:56:18;;;;;;;3.03;2.72;;;;;;;15.32;100.00;100298.63;5005942;28;20051;-78
2023/07/27 05:58:45;;;;;;;3.60;2.72;;;;;;;15.21;100.00;100293.75;4972002;28;20038;-78
2023/07/27 06:01:11;;;;;;;4.47;2.70;;;;;;;15.61;100.00;100289.28;4966183;28;20479;-78
2023/07/27 06:03:38;;;;;;;3.00;2.33;;;;;;;16.59;96.12;100297.81;5014183;28;20053;-78
2023/07/27 06:06:10;;;;;;;3.75;2.58;;;;;;;18.32;80.25;100288.41;4956170;28;20044;-79
2023/07/27 06:08:38;;;;;;;3.53;2.30;;;;;;;19.17;71.95;100290.44;4968594;28;20522;-78
2023/07/27 06:11:08;;;;;;;2.70;2.00;;;;;;;19.31;71.92;100288.63;4963880;28;20046;-78
2023/07/27 06:13:35;;;;;;;3.08;2.40;;;;;;;19.65;70.31;100292.75;4992777;28;20438;-79
2023/07/27 06:16:03;;;;;;;3.95;2.78;;;;;;;20.14;64.61;100289.56;4973871;28;20082;-78
2023/07/27 06:18:31;;;;;;;3.22;2.22;;;;;;;20.53;65.02;100290.59;4968043;28;20041;-78
2023/07/27 06:20:57;;;;;;;2.67;2.10;;;;;;;20.74;63.24;100282.88;4975120;28;20096;-78
2023/07/27 06:23:24;;;;;;;4.30;2.75;;;;;;;20.65;63.04;100289.75;4953516;28;20446;-78
2023/07/27 06:25:51;;;;;;;3.80;2.65;;;;;;;20.61;65.71;100290.94;4955166;28;20487;-78
2023/07/27 06:28:18;;;;;;;3.72;2.58;;;;;;;20.69;63.94;100296.63;4937305;28;20039;-79
2023/07/27 06:30:45;;;;;;;2.95;2.00;;;;;;;20.69;63.10;100279.69;4983633;28;20043;-78
2023/07/27 06:33:12;;;;;;;3.72;2.47;;;;;;;20.85;61.81;100287.50;4949672;28;20141;-78
2023/07/27 06:35:39;;;;;;;3.13;2.50;;;;;;;20.92;62.17;100283.44;4978142;28;21190;-78
2023/07/27 06:38:07;;;;;;;3.13;2.40;;;;;;;20.87;63.22;100286.47;4960254;28;20035;-78
2023/07/27 06:40:34;;;;;;;4.72;2.97;;;;;;;20.75;60.74;100281.91;4972382;28;20564;-79
2023/07/27 06:43:00;;;;;;;4.82;2.75;;;;;;;20.85;63.45;100287.50;5000968;28;20038;-80
2023/07/27 06:45:27;;;;;;;5.40;2.67;;;;;;;20.74;62.88;100289.09;4953050;28;20046;-81
2023/07/27 06:47:54;;;;;;;2.92;2.53;;;;;;;20.61;63.41;100288.25;4964428;28;20039;-81
2023/07/27 06:50:21;;;;;;;5.03;2.63;;;;;;;20.43;63.71;100284.06;4995282;28;20751;-82
2023/07/27 06:52:48;;;;;;;4.65;2.95;;;;;;;20.18;63.99;100287.56;4951769;28;20039;-81
2023/07/27 06:55:14;;;;;;;3.45;2.72;;;;;;;20.13;64.29;100287.00;4954779;28;20129;-81
2023/07/27 06:57:42;;;;;;;4.38;2.83;;;;;;;20.05;63.06;100282.13;4933279;28;20113;-81
2023/07/27 07:00:09;;;;;;;4.25;2.90;;;;;;;20.05;65.17;100287.50;4962916;28;20042;-80
2023/07/27 07:02:36;;;;;;;3.63;2.88;;;;;;;20.09;65.45;100283.63;4997474;28;20088;-80
2023/07/27 07:05:03;;;;;;;5.70;3.00;;;;;;;20.11;64.71;100289.78;4956819;28;20507;-80
2023/07/27 07:07:29;;;;;;;4.63;3.03;;;;;;;19.96;63.22;100280.06;4980793;28;21057;-81
2023/07/27 07:09:56;;;;;;;3.90;2.58;;;;;;;19.71;65.45;100278.09;5040024;28;20038;-81
2023/07/27 07:12:23;;;;;;;3.70;2.58;;;;;;;19.51;68.66;100278.50;4974853;28;20141;-81
2023/07/27 07:14:51;;;;;;;4.97;2.80;;;;;;;19.33;65.45;100276.00;4965846;28;20039;-80
2023/07/27 07:17:18;;;;;;;4.43;3.00;;;;;;;19.24;68.15;100265.84;4976879;28;20050;-80
2023/07/27 07:19:45;;;;;;;3.75;2.72;;;;;;;19.42;68.83;100266.50;4946106;28;20134;-81
2023/07/27 07:22:12;;;;;;;3.67;3.00;;;;;;;19.65;70.91;100265.94;4961002;28;20542;-80
2023/07/27 07:24:39;;;;;;;2.50;2.22;;;;;;;19.75;68.97;100265.34;4990575;28;20094;-82
2023/07/27 07:27:05;;;;;;;2.85;2.22;;;;;;;19.82;66.61;100264.00;4998939;28;20037;-81
2023/07/27 07:29:33;;;;;;;3.85;3.10;;;;;;;19.71;64.81;100264.69;5000165;28;20037;-81
2023/07/27 07:32:00;;;;;;;3.63;3.08;;;;;;;19.75;65.23;100268.03;4940269;28;20067;-80
2023/07/27 07:34:27;;;;;;;4.07;2.75;;;;;;;20.04;65.39;100269.69;4991573;28;20108;-80
2023/07/27 07:36:54;;;;;;;4.20;3.10;;;;;;;20.29;62.51;100262.69;4989729;28;20515;-80
2023/07/27 07:39:21;;;;;;;4.22;2.78;;;;;;;20.39;62.11;100266.47;4950511;28;20093;-80
2023/07/27 07:41:47;;;;;;;4.85;2.70;;;;;;;20.67;62.98;100266.34;4980848;28;20044;-81
2023/07/27 07:44:14;;;;;;;3.20;2.83;;;;;;;20.67;59.83;100260.97;4994781;28;20047;-81
2023/07/27 07:46:42;;;;;;;4.35;2.88;;;;;;;20.62;60.85;100262.25;4957755;28;20657;-80
2023/07/27 07:49:09;;;;;;;3.25;2.53;;;;;;;20.78;62.42;100263.78;4962132;28;20435;-81
2023/07/27 07:51:35;;;;;;;3.88;2.83;;;;;;;20.95;59.60;100249.19;4951113;28;20102;-81
2023/07/27 07:54:05;;;;;;;4.97;2.90;;;;;;;21.15;57.42;100244.22;4963881;28;20047;-80
2023/07/27 07:56:31;;;;;;;3.97;2.60;;;;;;;21.27;57.32;100246.94;4954597;28;20050;-81
2023/07/27 07:58:58;;;;;;;3.10;2.67;;;;;;;21.28;57.37;100245.13;4942095;28;20043;-82
2023/07/27 08:01:25;;;;;;;5.63;2.75;;;;;;;21.43;55.16;100238.63;4929482;28;20046;-80
2023/07/27 08:03:52;;;;;;;3.85;2.58;;;;;;;21.57;56.22;100240.31;4963980;28;20512;-80
2023/07/27 08:06:19;;;;;;;4.47;3.03;;;;;;;21.66;55.45;100239.66;4980229;28;20047;-80
2023/07/27 08:08:46;;;;;;;4.60;3.20;;;;;;;21.84;54.15;100226.66;4989109;28;20039;-79
2023/07/27 08:11:13;;;;;;;6.20;3.05;;;;;;;21.76;53.09;100224.53;4982437;28;20047;-79
2023/07/27 08:13:39;;;;;;;4.18;2.70;;;;;;;21.88;54.44;100217.41;4932001;28;20293;-80
2023/07/27 08:16:06;;;;;;;6.85;2.97;;;;;;;22.06;53.19;100224.09;4944301;28;20192;-79
2023/07/27 08:18:33;;;;;;;3.25;2.67;;;;;;;21.95;52.33;100213.31;5017117;28;20029;-78
2023/07/27 08:21:04;;;;;;;6.00;3.10;;;;;;;21.79;53.38;100221.66;4946664;28;20489;-80
2023/07/27 08:23:31;;;;;;;3.83;3.22;;;;;;;21.70;54.05;100219.63;4958951;28;20070;-80
2023/07/27 08:26:00;;;;;;;4.05;3.53;;;;;;;21.56;52.62;100223.34;4978687;28;20050;-80
2023/07/27 08:28:27;;;;;;;3.70;2.97;;;;;;;21.45;52.93;100219.72;4962939;28;20039;-79
2023/07/27 08:30:54;;;;;;;4.13;3.08;;;;;;;21.46;54.34;100216.06;4929496;28;20416;-81
2023/07/27 08:33:21;;;;;;;3.95;3.00;;;;;;;21.42;54.92;100220.78;4975286;28;20853;-79
2023/07/27 08:35:51;;;;;;;5.53;3.22;;;;;;;21.36;55.32;100218.56;4965995;28;20105;-81
2023/07/27 08:38:18;;;;;;;4.90;3.00;;;;;;;21.29;54.72;100209.22;4968170;28;20135;-81
2023/07/27 08:40:59;;;;;;;4.70;3.20;;;;;;;21.33;55.80;100211.56;4945620;28;20125;-80
2023/07/27 08:43:27;;;;;;;3.22;2.92;;;;;;;21.41;55.96;100202.09;4954374;28;20121;-80
2023/07/27 08:45:54;;;;;;;4.63;3.00;;;;;;;21.44;56.50;100199.16;4969072;28;20047;-79
2023/07/27 08:48:23;;;;;;;3.35;2.78;;;;;;;21.56;56.76;100203.66;4960722;28;20081;-80
2023/07/27 08:50:50;;;;;;;4.93;3.05;;;;;;;21.54;53.70;100189.47;4945521;28;20520;-82
2023/07/27 08:53:17;;;;;;;4.68;3.15;;;;;;;21.50;53.89;100188.81;4975580;28;20054;-80
2023/07/27 08:55:44;;;;;;;3.63;3.10;;;;;;;21.55;51.79;100192.06;4949593;28;20062;-80
2023/07/27 08:58:11;;;;;;;5.50;3.00;;;;;;;21.75;53.22;100181.63;4934913;28;20067;-81
2023/07/27 09:00:38;;;;;;;4.82;3.45;;;;;;;21.72;52.00;100181.88;4958071;28;20120;-78
2023/07/27 09:03:07;;;;;;;4.28;3.05;;;;;;;21.70;53.11;100181.16;4966986;28;20070;-78
2023/07/27 09:05:38;;;;;;;4.70;3.03;;;;;;;21.85;54.96;100180.84;4981948;28;20107;-79
2023/07/27 09:08:07;;;;;;;5.30;3.17;;;;;;;21.89;50.88;100170.72;4984223;28;20071;-80
2023/07/27 09:10:35;;;;;;;5.18;3.55;;;;;;;21.79;51.94;100181.31;4969095;28;20169;-79
2023/07/27 09:13:03;;;;;;;4.13;2.80;;;;;;;21.86;52.43;100176.31;4945261;28;20052;-79
2023/07/27 09:15:30;;;;;;;4.90;2.78;;;;;;;21.80;51.77;100169.59;4980065;28;20091;-80
2023/07/27 09:17:58;;;;;;;4.53;3.03;;;;;;;21.86;50.96;100171.81;4971718;28;20074;-79
2023/07/27 09:20:30;;;;;;;3.63;2.75;;;;;;;21.80;51.11;100169.59;4976531;28;20400;-80
2023/07/27 09:22:57;;;;;;;4.47;3.28;;;;;;;21.93;50.69;100172.19;4976971;28;20038;-79
2023/07/27 09:25:23;;;;;;;3.45;2.90;;;;;;;22.09;51.47;100159.31;4968997;28;20042;-78
2023/07/27 09:27:55;;;;;;;4.72;2.80;;;;;;;22.32;52.47;100159.41;4956972;28;20041;-79
2023/07/27 09:30:23;;;;;;;3.97;2.97;;;;;;;22.40;51.49;100160.53;4982940;28;20039;-78
2023/07/27 09:32:51;;;;;;;3.92;2.72;;;;;;;22.41;49.69;100159.53;4964131;28;20043;-79
2023/07/27 09:35:20;;;;;;;3.92;2.92;;;;;;;22.45;49.16;100144.88;5008108;28;20516;-78
2023/07/27 09:37:49;;;;;;;3.88;3.08;;;;;;;22.57;48.79;100145.75;4978646;28;20038;-79
2023/07/27 09:40:20;;;;;;;4.90;3.20;;;;;;;22.71;48.42;100136.59;5011911;28;20095;-79
2023/07/27 09:42:47;;;;;;;4.22;2.90;;;;;;;23.01;50.44;100147.63;4980667;28;20047;-78
2023/07/27 09:45:14;;;;;;;4.22;3.35;;;;;;;23.10;46.17;100137.94;5020794;28;20069;-78
2023/07/27 09:47:42;;;;;;;4.32;3.65;;;;;;;23.22;47.92;100138.81;4985703;28;20092;-81
2023/07/27 09:50:09;;;;;;;5.20;3.17;;;;;;;23.36;47.07;100133.13;4957482;28;20046;-80
2023/07/27 09:52:38;;;;;;;3.90;2.88;;;;;;;23.26;46.67;100134.88;5002584;28;20038;-79
2023/07/27 09:55:06;;;;;;;4.25;3.15;;;;;;;23.17;47.67;100122.16;4958273;28;20043;-80
2023/07/27 09:57:33;;;;;;;3.75;2.92;;;;;;;23.01;48.00;100120.69;4963063;28;20065;-80
2023/07/27 10:00:05;;;;;;;5.03;3.33;;;;;;;22.97;47.32;100118.38;4930978;28;20035;-80
2023/07/27 10:02:33;;;;;;;4.80;3.83;;;;;;;22.94;48.82;100119.47;5022619;28;20043;-80
2023/07/27 10:05:02;;;;;;;3.92;3.00;;;;;;;23.10;48.82;100111.00;4979821;28;20047;-80
2023/07/27 10:07:29;;;;;;;4.70;3.08;;;;;;;23.10;47.58;100096.69;4966969;28;20043;-80
2023/07/27 10:10:28;;;;;;;5.68;3.50;;;;;;;23.24;48.38;100116.13;4977058;28;20042;-79
2023/07/27 10:12:56;;;;;;;3.95;2.83;;;;;;;23.26;46.56;100111.47;4994185;28;20047;-82
2023/07/27 10:15:25;;;;;;;13.32;4.72;;;;;;;23.19;46.88;100109.41;4969097;28;20047;-80
2023/07/27 10:17:56;;;;;;;4.18;3.10;;;;;;;23.11;46.24;100117.25;5000540;28;20039;-80
2023/07/27 10:20:26;;;;;;;5.80;3.25;;;;;;;23.12;45.78;100105.47;4944019;28;20046;-80
2023/07/27 10:23:17;;;;;;;4.68;3.45;;;;;;;23.26;46.24;100105.22;4942218;28;20511;-81
2023/07/27 10:25:57;;;;;;;4.93;3.22;;;;;;;23.18;46.74;100097.75;5036147;28;20048;-80
2023/07/27 10:28:38;;;;;;;3.88;3.05;;;;;;;23.25;46.95;100092.72;4990821;28;20046;-80
2023/07/27 10:31:25;;;;;;;5.00;3.00;;;;;;;23.27;47.26;100090.75;4997532;28;20042;-79
2023/07/27 10:34:07;;;;;;;3.45;3.00;;;;;;;23.43;46.17;100091.22;4979894;28;20115;-79
2023/07/27 10:37:09;;;;;;;3.53;2.78;;;;;;;23.53;45.04;100092.16;4982886;28;20042;-78
2023/07/27 10:39:47;;;;;;;11.30;3.80;;;;;;;23.55;45.06;100094.75;4970630;28;20098;-79
2023/07/27 10:42:17;;;;;;;4.53;2.72;;;;;;;23.19;44.79;100093.22;4973207;28;20043;-80
2023/07/27 10:44:50;;;;;;;4.32;2.70;;;;;;;23.07;45.94;100078.06;5013754;28;20036;-80
2023/07/27 10:47:23;;;;;;;4.10;2.80;;;;;;;23.07;46.93;100078.06;4938617;28;20405;-80
2023/07/27 10:49:52;;;;;;;3.33;2.97;;;;;;;23.05;45.99;100088.13;4956509;28;20298;-79
2023/07/27 10:52:39;;;;;;;3.92;2.95;;;;;;;22.82;46.99;100082.72;4983427;28;20416;-80
2023/07/27 10:55:07;;;;;;;4.30;3.10;;;;;;;22.65;45.63;100072.44;4983319;28;20047;-80
2023/07/27 10:57:34;;;;;;;3.20;2.88;;;;;;;22.69;46.77;100073.91;5007947;28;20094;-79
2023/07/27 11:00:03;;;;;;;5.13;3.05;;;;;;;22.38;46.28;100073.66;4983078;28;20047;-79
2023/07/27 11:02:32;;;;;;;3.88;3.08;;;;;;;22.54;48.42;100069.78;4963156;28;20463;-80
2023/07/27 11:05:02;;;;;;;4.30;3.03;;;;;;;22.65;48.58;100067.06;4963032;28;20045;-78
2023/07/27 11:07:32;;;;;;;3.13;2.80;;;;;;;22.70;47.45;100067.53;4995277;28;20042;-81
2023/07/27 11:10:00;;;;;;;4.13;3.17;;;;;;;22.60;46.93;100063.88;4942603;28;20070;-79
2023/07/27 11:12:27;;;;;;;4.40;3.08;;;;;;;22.44;47.25;100065.09;4956784;28;20436;-80
2023/07/27 11:14:55;;;;;;;5.00;3.00;;;;;;;22.41;47.17;100076.09;5000915;28;20050;-80
2023/07/27 11:17:22;;;;;;;4.88;3.22;;;;;;;22.49;48.13;100067.44;4995090;28;20081;-79
2023/07/27 11:19:50;;;;;;;3.92;3.08;;;;;;;22.78;50.76;100062.38;4977648;28;20031;-79
2023/07/27 11:22:17;;;;;;;3.40;2.83;;;;;;;23.05;46.37;100064.72;4972230;28;20039;-80
2023/07/27 11:24:44;;;;;;;5.70;3.08;;;;;;;22.87;45.71;100059.00;4992421;28;20132;-79
2023/07/27 11:27:12;;;;;;;3.28;2.97;;;;;;;22.89;47.53;100064.28;4984879;28;20043;-80